TimeMDT,TemperatureF,Dew PointF,Humidity,Sea Level PressureIn,VisibilityMPH,Wind Direction,Wind SpeedMPH,Gust SpeedMPH,PrecipitationIn,Events,Conditions,WindDirDegrees,DateUTC
12:53 AM,64.0,55.9,75,30.00,10.0,East,6.9,-,N/A,,Mostly Cloudy,80,2013-08-31 06:53:00
1:53 AM,61.0,55.9,83,29.98,10.0,Calm,Calm,-,N/A,,Clear,0,2013-08-31 07:53:00
2:53 AM,59.0,55.9,90,29.99,10.0,ESE,5.8,-,N/A,,Clear,110,2013-08-31 08:53:00
3:53 AM,57.9,55.0,90,29.98,10.0,ESE,3.5,-,N/A,,Partly Cloudy,110,2013-08-31 09:53:00
4:53 AM,57.9,55.0,90,29.97,10.0,ENE,4.6,-,N/A,,Clear,70,2013-08-31 10:53:00
5:53 AM,57.0,54.0,89,30.04,10.0,NE,5.8,-,N/A,,Partly Cloudy,50,2013-08-31 11:53:00
6:53 AM,57.0,54.0,89,30.05,10.0,ENE,3.5,-,N/A,,Clear,60,2013-08-31 12:53:00
7:53 AM,60.1,54.0,80,30.06,10.0,ESE,4.6,-,N/A,,Clear,110,2013-08-31 13:53:00
8:53 AM,64.9,55.0,70,30.06,10.0,Calm,Calm,-,N/A,,Clear,0,2013-08-31 14:53:00
9:53 AM,71.1,54.0,55,30.04,10.0,Calm,Calm,-,N/A,,Clear,0,2013-08-31 15:53:00
10:53 AM,75.9,53.1,45,30.01,10.0,SE,3.5,-,N/A,,Clear,140,2013-08-31 16:53:00
11:53 AM,79.0,57.0,47,29.99,10.0,Variable,4.6,-,N/A,,Clear,0,2013-08-31 17:53:00
12:53 PM,81.0,57.0,44,29.95,10.0,Calm,Calm,-,N/A,,Clear,0,2013-08-31 18:53:00
1:53 PM,82.9,57.0,41,29.94,10.0,WNW,5.8,-,N/A,,Clear,290,2013-08-31 19:53:00
2:53 PM,84.9,57.0,38,29.90,10.0,West,9.2,-,N/A,,Clear,280,2013-08-31 20:53:00
3:53 PM,86.0,55.0,35,29.88,10.0,WSW,5.8,-,N/A,,Clear,240,2013-08-31 21:53:00
4:53 PM,84.9,54.0,34,29.88,10.0,West,6.9,-,N/A,,Clear,260,2013-08-31 22:53:00
5:53 PM,82.9,55.0,38,29.88,10.0,West,4.6,-,N/A,,Partly Cloudy,260,2013-08-31 23:53:00
6:53 PM,82.0,54.0,38,29.89,10.0,WNW,6.9,-,N/A,,Clear,290,2013-09-01 00:53:00
7:53 PM,73.9,60.1,62,29.91,10.0,ESE,3.5,-,N/A,,Clear,110,2013-09-01 01:53:00
8:53 PM,72.0,57.0,59,29.93,10.0,NNE,5.8,-,N/A,,Partly Cloudy,20,2013-09-01 02:53:00
9:53 PM,68.0,57.0,68,29.92,10.0,NE,4.6,-,N/A,,Clear,40,2013-09-01 03:53:00
10:53 PM,66.9,57.0,70,29.93,10.0,East,4.6,-,N/A,,Clear,100,2013-09-01 04:53:00
11:53 PM,66.0,55.9,70,29.93,10.0,ENE,5.8,-,N/A,,Clear,60,2013-09-01 05:53:00